»·PEaware :: DAL1093 KDEN-KSLC

DAL1093 :: KDEN-KSLC

FLIGHT INFORMATION

Flight Status: Arrived
Operator:
Delta Air Lines
More flights by this operator :: More flights under this callsign
Pilot: Adam H. (32152)
Aircraft: AIRBUS A321
(A321)
More flights by this aircraft type
Origin: KDEN Denver Intl
United States
Destination: KSLC Salt Lake City Intl
United States
More flights between these airports :: More routes between these airports
Route: ZIMMR2 CHNGY DCT EKR LEEHY5
File this flight plan on PilotEdge
Remarks:
Altitude:
(Current/Filed)
30,000ft
Speed:
(Current/Filed)
450kts
Departed: 09-Nov-20 07:41 PM
Arrived: 09-Nov-20 08:38 PM
Distance/Time
Traveled:
339nm/0:56
Distance/Time
To Go:
Arrived

Flight Plot

Page will automatically refresh every two minutes.

Flight plan parsing failed; only flown route is shown


Map Options




Map Legend


Flown Route
Filed Route
Departure Airport
Arrival Airport
Navaid (VOR, NDB)
Fix

Horizontal Profiles

Position Reports

Time Latitude Longitude Heading Altitude Ground
Speed
09-Nov-20 19:12 39.857978 -104.669547 0 5442ft 0kts
09-Nov-20 19:13 39.857978 -104.669547 0 5442ft 0kts
09-Nov-20 19:14 39.857978 -104.669547 0 5442ft 0kts
09-Nov-20 19:15 39.857978 -104.669547 0 5442ft 0kts
09-Nov-20 19:16 39.857978 -104.669547 0 5442ft 0kts
09-Nov-20 19:17 39.857978 -104.669547 0 5442ft 0kts
09-Nov-20 19:18 39.857978 -104.669547 0 5442ft 0kts
09-Nov-20 19:19 39.857978 -104.669547 0 5443ft 0kts
09-Nov-20 19:20 39.857978 -104.669547 0 5443ft 0kts
09-Nov-20 19:21 39.857978 -104.669547 0 5443ft 0kts
09-Nov-20 19:22 39.857978 -104.669547 0 5443ft 0kts
09-Nov-20 19:23 39.857978 -104.669547 0 5443ft 0kts
09-Nov-20 19:24 39.857978 -104.669547 0 5443ft 0kts
09-Nov-20 19:25 39.857978 -104.669547 0 5443ft 0kts
09-Nov-20 19:26 39.857764 -104.669550 0 5443ft 2kts
09-Nov-20 19:27 39.857284 -104.669886 81 5443ft 2kts
09-Nov-20 19:28 39.857282 -104.670016 90 5443ft 0kts
09-Nov-20 19:29 39.857282 -104.670016 90 5443ft 0kts
09-Nov-20 19:30 39.857282 -104.670016 90 5443ft 0kts
09-Nov-20 19:31 39.857282 -104.670016 90 5443ft 0kts
09-Nov-20 19:32 39.857086 -104.668956 108 5443ft 6kts
09-Nov-20 19:33 39.856770 -104.663986 84 5443ft 17kts
09-Nov-20 19:34 39.858778 -104.662377 4 5443ft 10kts
09-Nov-20 19:35 39.861030 -104.661703 86 5443ft 0kts
09-Nov-20 19:36 39.861030 -104.661703 86 5443ft 0kts
09-Nov-20 19:37 39.861030 -104.661703 86 5443ft 0kts
09-Nov-20 19:38 39.861030 -104.661703 86 5443ft 0kts
09-Nov-20 19:39 39.861053 -104.661113 88 5443ft 10kts
09-Nov-20 19:40 39.842949 -104.660378 180 5443ft 171kts
09-Nov-20 19:41 39.798385 -104.685894 266 7493ft 213kts
09-Nov-20 19:42 39.836836 -104.753607 311 8563ft 265kts
09-Nov-20 19:43 39.886401 -104.831083 308 10475ft 287kts
09-Nov-20 19:44 39.932231 -104.926861 277 11582ft 340kts
09-Nov-20 19:45 39.935844 -105.058836 270 13069ft 380kts
09-Nov-20 19:46 39.938852 -105.199910 271 15171ft 398kts
09-Nov-20 19:47 39.949194 -105.347707 275 17112ft 416kts
09-Nov-20 19:48 39.961250 -105.501034 275 18941ft 431kts
09-Nov-20 19:49 39.973395 -105.658792 274 20582ft 445kts
09-Nov-20 19:50 39.981965 -105.823792 273 22030ft 459kts
09-Nov-20 19:51 39.990230 -105.993895 273 22966ft 471kts
09-Nov-20 19:52 39.998412 -106.165146 273 22995ft 474kts
09-Nov-20 19:53 40.006455 -106.338862 272 24284ft 484kts
09-Nov-20 19:54 40.014283 -106.513590 272 26113ft 476kts
09-Nov-20 19:55 40.021324 -106.676641 271 27830ft 467kts
09-Nov-20 19:56 40.028292 -106.844358 272 29328ft 460kts
09-Nov-20 19:57 40.034935 -107.010822 272 29992ft 458kts
09-Nov-20 19:58 40.041417 -107.178358 273 30011ft 459kts
09-Nov-20 19:59 40.047665 -107.345519 274 30017ft 461kts
09-Nov-20 20:00 40.053717 -107.513168 274 30017ft 461kts
09-Nov-20 20:01 40.059511 -107.680630 273 30017ft 461kts
09-Nov-20 20:02 40.065041 -107.847971 273 30017ft 460kts
09-Nov-20 20:03 40.071506 -108.016144 275 30017ft 460kts
09-Nov-20 20:04 40.079325 -108.185268 275 30024ft 461kts
09-Nov-20 20:05 40.086626 -108.352761 275 30034ft 461kts
09-Nov-20 20:06 40.093730 -108.521052 275 30040ft 462kts
09-Nov-20 20:07 40.100566 -108.689180 275 30039ft 463kts
09-Nov-20 20:08 40.107455 -108.857040 276 30037ft 464kts
09-Nov-20 20:09 40.114006 -109.025758 277 30036ft 464kts
09-Nov-20 20:10 40.120204 -109.194533 277 30028ft 466kts
09-Nov-20 20:11 40.126114 -109.363766 278 30020ft 466kts
09-Nov-20 20:12 40.131761 -109.532640 278 30019ft 464kts
09-Nov-20 20:13 40.137120 -109.700898 278 30018ft 463kts
09-Nov-20 20:14 40.142184 -109.868922 278 30019ft 462kts
09-Nov-20 20:15 40.146975 -110.037133 278 30023ft 462kts
09-Nov-20 20:16 40.149108 -110.206297 275 30042ft 464kts
09-Nov-20 20:17 40.147704 -110.376216 275 30052ft 465kts
09-Nov-20 20:18 40.146016 -110.546624 275 30054ft 465kts
09-Nov-20 20:19 40.144083 -110.715317 274 29461ft 463kts
09-Nov-20 20:20 40.141920 -110.882438 274 26787ft 458kts
09-Nov-20 20:21 40.139496 -111.049381 273 23461ft 460kts
09-Nov-20 20:22 40.136832 -111.211971 272 21093ft 436kts
09-Nov-20 20:23 40.134267 -111.367399 271 18714ft 420kts
09-Nov-20 20:24 40.132338 -111.516759 276 16433ft 403kts
09-Nov-20 20:25 40.169931 -111.653427 299 14429ft 399kts
09-Nov-20 20:26 40.238690 -111.762141 313 12508ft 369kts
09-Nov-20 20:27 40.308615 -111.848933 320 11757ft 320kts
09-Nov-20 20:28 40.374757 -111.915815 323 11066ft 279kts
09-Nov-20 20:29 40.448062 -111.935048 355 9580ft 265kts
09-Nov-20 20:30 40.518136 -111.942385 352 8183ft 225kts
09-Nov-20 20:31 40.569141 -111.949066 353 7689ft 159kts
09-Nov-20 20:32 40.613817 -111.954453 353 7203ft 158kts
09-Nov-20 20:33 40.657939 -111.959599 353 6529ft 157kts
09-Nov-20 20:35 40.701457 -111.964633 352 5675ft 156kts
09-Nov-20 20:36 40.743445 -111.969733 357 4854ft 147kts
09-Nov-20 20:37 40.784397 -111.974149 355 4225ft 127kts
09-Nov-20 20:38 40.795380 -111.977650 184 4224ft 9kts
09-Nov-20 20:39 40.792122 -111.977375 175 4224ft 13kts
09-Nov-20 20:40 40.789450 -111.978886 174 4224ft 8kts

Navigation Log

Ident Type
Flight plan parsing failed, navigation log unavailable